sensor_id;sensor_type;location;lat;lon;timestamp;pressure;altitude;pressure_sealevel;temperature;humidity
19510;BME280;9896;42.486;26.506;2023-03-04T00:01:42;99977.41;;;4.61;100.00
19510;BME280;9896;42.486;26.506;2023-03-04T00:04:08;99971.13;;;4.62;100.00
19510;BME280;9896;42.486;26.506;2023-03-04T00:06:33;99965.47;;;4.49;100.00
19510;BME280;9896;42.486;26.506;2023-03-04T00:08:59;99965.13;;;4.44;100.00
19510;BME280;9896;42.486;26.506;2023-03-04T00:11:25;99963.31;;;4.61;100.00
19510;BME280;9896;42.486;26.506;2023-03-04T00:13:50;99960.50;;;4.71;100.00
19510;BME280;9896;42.486;26.506;2023-03-04T00:16:16;99960.66;;;4.77;100.00
19510;BME280;9896;42.486;26.506;2023-03-04T00:18:41;99948.53;;;4.75;100.00
19510;BME280;9896;42.486;26.506;2023-03-04T00:21:07;99952.38;;;4.80;100.00
19510;BME280;9896;42.486;26.506;2023-03-04T00:23:32;99943.56;;;4.63;100.00
19510;BME280;9896;42.486;26.506;2023-03-04T00:25:58;99943.38;;;4.65;100.00
19510;BME280;9896;42.486;26.506;2023-03-04T00:28:23;99939.94;;;4.64;100.00
19510;BME280;9896;42.486;26.506;2023-03-04T00:30:49;99923.47;;;4.53;100.00
19510;BME280;9896;42.486;26.506;2023-03-04T00:33:15;99932.28;;;4.61;100.00
19510;BME280;9896;42.486;26.506;2023-03-04T00:35:41;99918.53;;;4.50;100.00
19510;BME280;9896;42.486;26.506;2023-03-04T00:38:06;99928.47;;;4.64;100.00
19510;BME280;9896;42.486;26.506;2023-03-04T00:40:32;99932.13;;;4.71;100.00
19510;BME280;9896;42.486;26.506;2023-03-04T00:42:58;99930.28;;;4.72;100.00
19510;BME280;9896;42.486;26.506;2023-03-04T00:45:23;99930.63;;;4.68;100.00
19510;BME280;9896;42.486;26.506;2023-03-04T00:47:49;99922.69;;;4.60;100.00
19510;BME280;9896;42.486;26.506;2023-03-04T00:50:15;99929.97;;;4.58;100.00
19510;BME280;9896;42.486;26.506;2023-03-04T00:52:40;99922.69;;;4.60;100.00
19510;BME280;9896;42.486;26.506;2023-03-04T00:55:07;99923.47;;;4.53;100.00
19510;BME280;9896;42.486;26.506;2023-03-04T00:57:33;99914.19;;;4.49;100.00
19510;BME280;9896;42.486;26.506;2023-03-04T00:59:58;99922.16;;;4.49;100.00
19510;BME280;9896;42.486;26.506;2023-03-04T01:02:24;99930.81;;;4.51;100.00
19510;BME280;9896;42.486;26.506;2023-03-04T01:04:50;99917.03;;;4.39;100.00
19510;BME280;9896;42.486;26.506;2023-03-04T01:07:16;99914.88;;;4.43;100.00
19510;BME280;9896;42.486;26.506;2023-03-04T01:09:41;99915.22;;;4.24;100.00
19510;BME280;9896;42.486;26.506;2023-03-04T01:12:07;99922.66;;;4.28;100.00
19510;BME280;9896;42.486;26.506;2023-03-04T01:14:32;99923.34;;;4.38;100.00
19510;BME280;9896;42.486;26.506;2023-03-04T01:16:58;99925.84;;;4.32;100.00
19510;BME280;9896;42.486;26.506;2023-03-04T01:19:24;99929.13;;;4.34;100.00
19510;BME280;9896;42.486;26.506;2023-03-04T01:21:49;99915.53;;;4.20;100.00
19510;BME280;9896;42.486;26.506;2023-03-04T01:24:15;99934.94;;;4.21;100.00
19510;BME280;9896;42.486;26.506;2023-03-04T01:26:40;99935.91;;;3.96;100.00
19510;BME280;9896;42.486;26.506;2023-03-04T01:29:06;99929.59;;;3.97;100.00
19510;BME280;9896;42.486;26.506;2023-03-04T01:31:31;99940.19;;;3.89;100.00
19510;BME280;9896;42.486;26.506;2023-03-04T01:33:57;99926.78;;;3.90;100.00
19510;BME280;9896;42.486;26.506;2023-03-04T01:36:22;99929.72;;;3.79;100.00
19510;BME280;9896;42.486;26.506;2023-03-04T01:38:48;99918.97;;;3.81;100.00
19510;BME280;9896;42.486;26.506;2023-03-04T01:41:16;99942.84;;;3.89;100.00
19510;BME280;9896;42.486;26.506;2023-03-04T01:43:43;99948.63;;;3.76;100.00
19510;BME280;9896;42.486;26.506;2023-03-04T01:46:11;99958.91;;;3.79;100.00
19510;BME280;9896;42.486;26.506;2023-03-04T01:48:40;99962.72;;;3.85;100.00
19510;BME280;9896;42.486;26.506;2023-03-04T01:51:11;99949.00;;;3.97;100.00
19510;BME280;9896;42.486;26.506;2023-03-04T01:53:37;99942.03;;;3.88;100.00
19510;BME280;9896;42.486;26.506;2023-03-04T01:56:27;99946.47;;;3.80;100.00
19510;BME280;9896;42.486;26.506;2023-03-04T02:01:40;99941.59;;;3.59;100.00
19510;BME280;9896;42.486;26.506;2023-03-04T02:04:07;99949.13;;;3.80;100.00
19510;BME280;9896;42.486;26.506;2023-03-04T02:06:35;99951.28;;;3.76;100.00
19510;BME280;9896;42.486;26.506;2023-03-04T02:09:00;99945.09;;;3.67;100.00
19510;BME280;9896;42.486;26.506;2023-03-04T02:11:26;99954.72;;;3.68;100.00
19510;BME280;9896;42.486;26.506;2023-03-04T02:13:52;99955.91;;;3.66;100.00
19510;BME280;9896;42.486;26.506;2023-03-04T02:16:18;99950.44;;;3.75;100.00
19510;BME280;9896;42.486;26.506;2023-03-04T02:18:43;99936.16;;;3.68;100.00
19510;BME280;9896;42.486;26.506;2023-03-04T02:21:25;99942.97;;;3.71;100.00
19510;BME280;9896;42.486;26.506;2023-03-04T02:26:45;99933.03;;;3.73;100.00
19510;BME280;9896;42.486;26.506;2023-03-04T02:29:13;99929.69;;;3.63;100.00
19510;BME280;9896;42.486;26.506;2023-03-04T02:31:41;99943.25;;;3.60;100.00
19510;BME280;9896;42.486;26.506;2023-03-04T02:34:12;99942.81;;;3.72;100.00
19510;BME280;9896;42.486;26.506;2023-03-04T02:36:39;99936.84;;;3.62;100.00
19510;BME280;9896;42.486;26.506;2023-03-04T02:39:27;99943.47;;;3.66;100.00
19510;BME280;9896;42.486;26.506;2023-03-04T02:41:55;99943.50;;;3.74;100.00
19510;BME280;9896;42.486;26.506;2023-03-04T02:44:29;99950.63;;;3.74;100.00
19510;BME280;9896;42.486;26.506;2023-03-04T02:46:56;99952.25;;;3.75;100.00
19510;BME280;9896;42.486;26.506;2023-03-04T02:49:23;99961.03;;;3.75;100.00
19510;BME280;9896;42.486;26.506;2023-03-04T02:51:58;99941.47;;;3.68;100.00
19510;BME280;9896;42.486;26.506;2023-03-04T02:54:25;99952.75;;;3.62;100.00
19510;BME280;9896;42.486;26.506;2023-03-04T02:56:52;99954.06;;;3.58;100.00
19510;BME280;9896;42.486;26.506;2023-03-04T02:59:19;99959.88;;;3.70;100.00
19510;BME280;9896;42.486;26.506;2023-03-04T03:01:45;99956.94;;;3.81;100.00
19510;BME280;9896;42.486;26.506;2023-03-04T03:04:11;99952.91;;;3.69;100.00
19510;BME280;9896;42.486;26.506;2023-03-04T03:06:38;99949.09;;;3.71;100.00
19510;BME280;9896;42.486;26.506;2023-03-04T03:09:03;99944.97;;;3.77;100.00
19510;BME280;9896;42.486;26.506;2023-03-04T03:11:29;99937.84;;;3.69;100.00
19510;BME280;9896;42.486;26.506;2023-03-04T03:13:55;99942.16;;;3.70;100.00
19510;BME280;9896;42.486;26.506;2023-03-04T03:16:21;99944.78;;;3.62;100.00
19510;BME280;9896;42.486;26.506;2023-03-04T03:18:46;99944.81;;;3.70;100.00
19510;BME280;9896;42.486;26.506;2023-03-04T03:21:12;99947.47;;;3.70;100.00
19510;BME280;9896;42.486;26.506;2023-03-04T03:23:37;99946.63;;;3.70;100.00
19510;BME280;9896;42.486;26.506;2023-03-04T03:26:04;99931.16;;;3.57;100.00
19510;BME280;9896;42.486;26.506;2023-03-04T03:28:30;99930.47;;;3.47;100.00
19510;BME280;9896;42.486;26.506;2023-03-04T03:30:56;99933.19;;;3.71;100.00
19510;BME280;9896;42.486;26.506;2023-03-04T03:33:22;99929.41;;;3.74;100.00
19510;BME280;9896;42.486;26.506;2023-03-04T03:35:47;99924.25;;;3.81;100.00
19510;BME280;9896;42.486;26.506;2023-03-04T03:38:13;99926.91;;;3.72;100.00
19510;BME280;9896;42.486;26.506;2023-03-04T03:40:38;99931.53;;;3.62;100.00
19510;BME280;9896;42.486;26.506;2023-03-04T03:43:04;99946.94;;;3.67;100.00
19510;BME280;9896;42.486;26.506;2023-03-04T03:45:29;99940.31;;;3.79;100.00
19510;BME280;9896;42.486;26.506;2023-03-04T03:47:55;99941.63;;;3.67;100.00
19510;BME280;9896;42.486;26.506;2023-03-04T03:50:21;99946.75;;;3.60;100.00
19510;BME280;9896;42.486;26.506;2023-03-04T03:52:46;99953.34;;;3.48;100.00
19510;BME280;9896;42.486;26.506;2023-03-04T03:55:12;99961.16;;;3.58;100.00
19510;BME280;9896;42.486;26.506;2023-03-04T03:57:38;99963.91;;;3.40;100.00
19510;BME280;9896;42.486;26.506;2023-03-04T04:00:04;99971.06;;;3.48;100.00
19510;BME280;9896;42.486;26.506;2023-03-04T04:02:30;99978.84;;;3.49;100.00
19510;BME280;9896;42.486;26.506;2023-03-04T04:04:56;99976.69;;;3.45;100.00
19510;BME280;9896;42.486;26.506;2023-03-04T04:07:21;99973.03;;;3.46;100.00
19510;BME280;9896;42.486;26.506;2023-03-04T04:09:47;99970.72;;;3.51;100.00
19510;BME280;9896;42.486;26.506;2023-03-04T04:12:15;99961.13;;;3.50;100.00
19510;BME280;9896;42.486;26.506;2023-03-04T04:14:41;99960.00;;;3.60;100.00
19510;BME280;9896;42.486;26.506;2023-03-04T04:17:07;99972.03;;;3.47;100.00
19510;BME280;9896;42.486;26.506;2023-03-04T04:19:33;99972.38;;;3.44;100.00
19510;BME280;9896;42.486;26.506;2023-03-04T04:21:59;99975.84;;;3.44;100.00
19510;BME280;9896;42.486;26.506;2023-03-04T04:24:25;99979.69;;;3.50;100.00
19510;BME280;9896;42.486;26.506;2023-03-04T04:26:50;99977.34;;;3.47;100.00
19510;BME280;9896;42.486;26.506;2023-03-04T04:29:17;99963.63;;;3.59;100.00
19510;BME280;9896;42.486;26.506;2023-03-04T04:31:42;99949.94;;;3.72;100.00
19510;BME280;9896;42.486;26.506;2023-03-04T04:34:08;99946.66;;;3.78;100.00
19510;BME280;9896;42.486;26.506;2023-03-04T04:36:33;99954.59;;;3.78;100.00
19510;BME280;9896;42.486;26.506;2023-03-04T04:38:59;99948.47;;;3.78;100.00
19510;BME280;9896;42.486;26.506;2023-03-04T04:41:28;99940.84;;;3.74;100.00
19510;BME280;9896;42.486;26.506;2023-03-04T04:43:56;99935.56;;;3.83;100.00
19510;BME280;9896;42.486;26.506;2023-03-04T04:46:22;99941.19;;;3.96;100.00
19510;BME280;9896;42.486;26.506;2023-03-04T04:48:48;99939.88;;;3.92;100.00
19510;BME280;9896;42.486;26.506;2023-03-04T04:51:14;99946.34;;;3.89;100.00
19510;BME280;9896;42.486;26.506;2023-03-04T04:53:40;99955.25;;;3.72;100.00
19510;BME280;9896;42.486;26.506;2023-03-04T04:56:13;99955.25;;;3.72;100.00
19510;BME280;9896;42.486;26.506;2023-03-04T04:58:39;99964.84;;;3.73;100.00
19510;BME280;9896;42.486;26.506;2023-03-04T05:01:04;99959.69;;;3.63;100.00
19510;BME280;9896;42.486;26.506;2023-03-04T05:03:32;99963.69;;;3.75;100.00
19510;BME280;9896;42.486;26.506;2023-03-04T05:05:57;99959.41;;;3.74;100.00
19510;BME280;9896;42.486;26.506;2023-03-04T05:08:23;99957.22;;;3.62;100.00
19510;BME280;9896;42.486;26.506;2023-03-04T05:10:49;99961.16;;;3.58;100.00
19510;BME280;9896;42.486;26.506;2023-03-04T05:13:14;99970.13;;;3.65;100.00
19510;BME280;9896;42.486;26.506;2023-03-04T05:15:40;99961.69;;;3.61;100.00
19510;BME280;9896;42.486;26.506;2023-03-04T05:18:05;99961.88;;;3.76;100.00
19510;BME280;9896;42.486;26.506;2023-03-04T05:20:31;99955.97;;;3.98;100.00
19510;BME280;9896;42.486;26.506;2023-03-04T05:22:56;99962.78;;;4.17;100.00
19510;BME280;9896;42.486;26.506;2023-03-04T05:25:22;99965.09;;;4.04;100.00
19510;BME280;9896;42.486;26.506;2023-03-04T05:27:48;99969.91;;;4.00;100.00
19510;BME280;9896;42.486;26.506;2023-03-04T05:30:13;99977.03;;;4.08;100.00
19510;BME280;9896;42.486;26.506;2023-03-04T05:32:39;99980.50;;;4.00;100.00
19510;BME280;9896;42.486;26.506;2023-03-04T05:35:05;99982.84;;;3.95;100.00
19510;BME280;9896;42.486;26.506;2023-03-04T05:37:31;99981.31;;;3.93;100.00
19510;BME280;9896;42.486;26.506;2023-03-04T05:39:56;99983.00;;;4.02;100.00
19510;BME280;9896;42.486;26.506;2023-03-04T05:42:22;99979.66;;;4.00;100.00
19510;BME280;9896;42.486;26.506;2023-03-04T05:44:50;99983.53;;;4.13;100.00
19510;BME280;9896;42.486;26.506;2023-03-04T05:47:16;99984.03;;;4.33;100.00
19510;BME280;9896;42.486;26.506;2023-03-04T05:49:42;99988.88;;;4.46;100.00
19510;BME280;9896;42.486;26.506;2023-03-04T05:52:09;99993.00;;;4.32;100.00
19510;BME280;9896;42.486;26.506;2023-03-04T05:54:34;99987.03;;;4.22;100.00
19510;BME280;9896;42.486;26.506;2023-03-04T05:56:59;99983.03;;;4.18;100.00
19510;BME280;9896;42.486;26.506;2023-03-04T05:59:27;99978.06;;;4.15;100.00
19510;BME280;9896;42.486;26.506;2023-03-04T06:01:52;99978.72;;;4.17;100.00
19510;BME280;9896;42.486;26.506;2023-03-04T06:04:18;99976.88;;;4.09;100.00
19510;BME280;9896;42.486;26.506;2023-03-04T06:06:44;99977.06;;;4.32;100.00
19510;BME280;9896;42.486;26.506;2023-03-04T06:09:12;99982.91;;;4.36;100.00
19510;BME280;9896;42.486;26.506;2023-03-04T06:11:38;99991.19;;;4.65;100.00
19510;BME280;9896;42.486;26.506;2023-03-04T06:14:03;99991.38;;;4.47;100.00
19510;BME280;9896;42.486;26.506;2023-03-04T06:16:29;99991.03;;;4.50;100.00
19510;BME280;9896;42.486;26.506;2023-03-04T06:18:55;99986.91;;;4.80;100.00
19510;BME280;9896;42.486;26.506;2023-03-04T06:21:20;99991.72;;;4.85;100.00
19510;BME280;9896;42.486;26.506;2023-03-04T06:23:46;99989.38;;;4.82;100.00
19510;BME280;9896;42.486;26.506;2023-03-04T06:26:11;100000.66;;;4.84;100.00
19510;BME280;9896;42.486;26.506;2023-03-04T06:28:43;100004.47;;;4.81;100.00
19510;BME280;9896;42.486;26.506;2023-03-04T06:31:09;100002.34;;;4.77;100.00
19510;BME280;9896;42.486;26.506;2023-03-04T06:33:35;100000.50;;;4.69;100.00
19510;BME280;9896;42.486;26.506;2023-03-04T06:36:01;100008.13;;;4.96;100.00
19510;BME280;9896;42.486;26.506;2023-03-04T06:38:26;100002.50;;;4.83;100.00
19510;BME280;9896;42.486;26.506;2023-03-04T06:40:53;100002.47;;;4.91;100.00
19510;BME280;9896;42.486;26.506;2023-03-04T06:43:19;100002.47;;;5.07;100.00
19510;BME280;9896;42.486;26.506;2023-03-04T06:45:44;100003.75;;;5.28;100.00
19510;BME280;9896;42.486;26.506;2023-03-04T06:48:11;100003.63;;;5.21;100.00
19510;BME280;9896;42.486;26.506;2023-03-04T06:50:39;100012.59;;;5.12;100.00
19510;BME280;9896;42.486;26.506;2023-03-04T06:53:05;100009.75;;;5.13;100.00
19510;BME280;9896;42.486;26.506;2023-03-04T06:55:30;100008.91;;;5.29;100.00
19510;BME280;9896;42.486;26.506;2023-03-04T06:57:56;100007.53;;;5.49;100.00
19510;BME280;9896;42.486;26.506;2023-03-04T07:00:22;99999.28;;;5.67;100.00
19510;BME280;9896;42.486;26.506;2023-03-04T07:02:50;99988.06;;;5.96;100.00
19510;BME280;9896;42.486;26.506;2023-03-04T07:05:16;99999.53;;;5.96;100.00
19510;BME280;9896;42.486;26.506;2023-03-04T07:07:41;99992.25;;;5.90;100.00
19510;BME280;9896;42.486;26.506;2023-03-04T07:10:08;99994.84;;;6.06;100.00
19510;BME280;9896;42.486;26.506;2023-03-04T07:12:34;99998.25;;;5.76;100.00
19510;BME280;9896;42.486;26.506;2023-03-04T07:15:00;99983.25;;;5.83;100.00
19510;BME280;9896;42.486;26.506;2023-03-04T07:17:26;99990.84;;;6.02;100.00
19510;BME280;9896;42.486;26.506;2023-03-04T07:19:51;99995.41;;;6.47;100.00
19510;BME280;9896;42.486;26.506;2023-03-04T07:22:17;99990.06;;;6.47;100.00
19510;BME280;9896;42.486;26.506;2023-03-04T07:24:42;99988.03;;;6.49;100.00
19510;BME280;9896;42.486;26.506;2023-03-04T07:27:08;99977.66;;;6.77;100.00
19510;BME280;9896;42.486;26.506;2023-03-04T07:29:34;99986.34;;;6.94;100.00
19510;BME280;9896;42.486;26.506;2023-03-04T07:32:00;99993.16;;;6.96;100.00
19510;BME280;9896;42.486;26.506;2023-03-04T07:34:27;100000.41;;;6.65;100.00
19510;BME280;9896;42.486;26.506;2023-03-04T07:36:53;100002.84;;;7.12;100.00
19510;BME280;9896;42.486;26.506;2023-03-04T07:39:19;99997.22;;;7.07;100.00
19510;BME280;9896;42.486;26.506;2023-03-04T07:41:44;100010.09;;;7.18;100.00
19510;BME280;9896;42.486;26.506;2023-03-04T07:44:11;100012.53;;;7.05;100.00
19510;BME280;9896;42.486;26.506;2023-03-04T07:46:38;100009.25;;;7.18;100.00
19510;BME280;9896;42.486;26.506;2023-03-04T07:49:04;100009.84;;;7.42;100.00
19510;BME280;9896;42.486;26.506;2023-03-04T07:51:30;100005.53;;;7.41;100.00
19510;BME280;9896;42.486;26.506;2023-03-04T07:53:57;100005.22;;;7.22;100.00
19510;BME280;9896;42.486;26.506;2023-03-04T07:56:26;99998.59;;;7.03;100.00
19510;BME280;9896;42.486;26.506;2023-03-04T07:58:52;99996.97;;;7.31;100.00
19510;BME280;9896;42.486;26.506;2023-03-04T08:01:20;99992.63;;;7.16;100.00
19510;BME280;9896;42.486;26.506;2023-03-04T08:03:46;100001.00;;;7.13;100.00
19510;BME280;9896;42.486;26.506;2023-03-04T08:06:14;99997.59;;;7.19;100.00
19510;BME280;9896;42.486;26.506;2023-03-04T08:08:40;99993.00;;;7.42;100.00
19510;BME280;9896;42.486;26.506;2023-03-04T08:11:10;99973.13;;;7.59;100.00
19510;BME280;9896;42.486;26.506;2023-03-04T08:13:36;99987.34;;;7.95;100.00
19510;BME280;9896;42.486;26.506;2023-03-04T08:16:02;99987.88;;;8.06;100.00
19510;BME280;9896;42.486;26.506;2023-03-04T08:18:28;99980.31;;;8.09;100.00
19510;BME280;9896;42.486;26.506;2023-03-04T08:20:53;99986.47;;;7.74;100.00
19510;BME280;9896;42.486;26.506;2023-03-04T08:23:19;99986.38;;;7.67;100.00
19510;BME280;9896;42.486;26.506;2023-03-04T08:25:45;99992.41;;;8.05;100.00
19510;BME280;9896;42.486;26.506;2023-03-04T08:28:11;99985.50;;;7.96;100.00
19510;BME280;9896;42.486;26.506;2023-03-04T08:30:38;99982.69;;;8.55;100.00
19510;BME280;9896;42.486;26.506;2023-03-04T08:33:05;99981.03;;;8.18;100.00
19510;BME280;9896;42.486;26.506;2023-03-04T08:35:32;99971.31;;;8.10;100.00
19510;BME280;9896;42.486;26.506;2023-03-04T08:37:58;99968.50;;;8.54;100.00
19510;BME280;9896;42.486;26.506;2023-03-04T08:40:24;99968.91;;;8.79;100.00
19510;BME280;9896;42.486;26.506;2023-03-04T08:42:51;99976.16;;;8.85;98.79
19510;BME280;9896;42.486;26.506;2023-03-04T08:45:17;99974.88;;;8.81;98.66
19510;BME280;9896;42.486;26.506;2023-03-04T08:47:43;99968.53;;;8.82;98.67
19510;BME280;9896;42.486;26.506;2023-03-04T08:50:09;99961.59;;;8.66;100.00
19510;BME280;9896;42.486;26.506;2023-03-04T08:52:35;99966.78;;;8.68;99.54
19510;BME280;9896;42.486;26.506;2023-03-04T08:55:01;99962.09;;;8.76;99.51
19510;BME280;9896;42.486;26.506;2023-03-04T08:57:26;99965.16;;;9.01;98.30
19510;BME280;9896;42.486;26.506;2023-03-04T08:59:52;99951.84;;;9.08;97.29
19510;BME280;9896;42.486;26.506;2023-03-04T09:02:18;99961.22;;;8.97;99.13
19510;BME280;9896;42.486;26.506;2023-03-04T09:04:43;99960.97;;;9.54;96.35
19510;BME280;9896;42.486;26.506;2023-03-04T09:07:11;99953.06;;;9.74;95.16
19510;BME280;9896;42.486;26.506;2023-03-04T09:09:38;99944.84;;;9.07;97.29
19510;BME280;9896;42.486;26.506;2023-03-04T09:12:04;99942.41;;;9.12;96.81
19510;BME280;9896;42.486;26.506;2023-03-04T09:14:30;99934.91;;;9.28;95.86
19510;BME280;9896;42.486;26.506;2023-03-04T09:16:56;99947.88;;;9.31;96.23
19510;BME280;9896;42.486;26.506;2023-03-04T09:19:22;99945.38;;;9.23;96.99
19510;BME280;9896;42.486;26.506;2023-03-04T09:21:48;99936.13;;;9.26;97.14
19510;BME280;9896;42.486;26.506;2023-03-04T09:24:14;99923.66;;;9.40;96.66
19510;BME280;9896;42.486;26.506;2023-03-04T09:26:40;99927.91;;;9.27;97.49
19510;BME280;9896;42.486;26.506;2023-03-04T09:29:05;99929.41;;;9.37;96.88
19510;BME280;9896;42.486;26.506;2023-03-04T09:31:31;99931.09;;;9.51;95.75
19510;BME280;9896;42.486;26.506;2023-03-04T09:33:58;99938.34;;;9.16;97.89
19510;BME280;9896;42.486;26.506;2023-03-04T09:36:24;99942.84;;;9.15;98.63
19510;BME280;9896;42.486;26.506;2023-03-04T09:38:49;99924.97;;;9.16;98.96
19510;BME280;9896;42.486;26.506;2023-03-04T09:41:17;99937.03;;;9.40;98.54
19510;BME280;9896;42.486;26.506;2023-03-04T09:43:47;99925.16;;;8.86;100.00
19510;BME280;9896;42.486;26.506;2023-03-04T09:46:17;99925.44;;;8.98;100.00
19510;BME280;9896;42.486;26.506;2023-03-04T09:48:50;99923.97;;;9.23;98.73
19510;BME280;9896;42.486;26.506;2023-03-04T09:57:29;99917.34;;;9.13;99.24
19510;BME280;9896;42.486;26.506;2023-03-04T10:02:43;99908.16;;;9.28;98.04
19510;BME280;9896;42.486;26.506;2023-03-04T10:05:12;99912.53;;;9.43;97.89
19510;BME280;9896;42.486;26.506;2023-03-04T10:07:42;99911.16;;;9.53;96.53
19510;BME280;9896;42.486;26.506;2023-03-04T10:10:16;99912.06;;;9.80;95.10
19510;BME280;9896;42.486;26.506;2023-03-04T10:12:45;99909.09;;;9.55;96.34
19510;BME280;9896;42.486;26.506;2023-03-04T10:17:51;99901.03;;;10.09;95.29
19510;BME280;9896;42.486;26.506;2023-03-04T10:20:46;99884.50;;;9.86;95.80
19510;BME280;9896;42.486;26.506;2023-03-04T10:23:18;99893.94;;;9.75;97.08
19510;BME280;9896;42.486;26.506;2023-03-04T10:25:45;99894.81;;;9.96;95.86
19510;BME280;9896;42.486;26.506;2023-03-04T10:28:20;99883.53;;;10.13;94.39
19510;BME280;9896;42.486;26.506;2023-03-04T10:33:15;99872.84;;;10.33;93.05
19510;BME280;9896;42.486;26.506;2023-03-04T10:35:48;99859.38;;;10.07;95.31
19510;BME280;9896;42.486;26.506;2023-03-04T10:38:18;99865.22;;;10.63;92.76
19510;BME280;9896;42.486;26.506;2023-03-04T10:40:44;99859.38;;;10.92;92.16
19510;BME280;9896;42.486;26.506;2023-03-04T10:43:20;99853.66;;;10.69;91.93
19510;BME280;9896;42.486;26.506;2023-03-04T10:45:47;99853.69;;;10.43;93.46
19510;BME280;9896;42.486;26.506;2023-03-04T10:48:22;99849.16;;;10.50;93.50
19510;BME280;9896;42.486;26.506;2023-03-04T10:50:49;99843.56;;;10.45;93.52
19510;BME280;9896;42.486;26.506;2023-03-04T10:53:27;99825.22;;;10.61;92.35
19510;BME280;9896;42.486;26.506;2023-03-04T10:55:53;99830.41;;;10.30;95.11
19510;BME280;9896;42.486;26.506;2023-03-04T10:58:20;99824.22;;;10.30;94.96
19510;BME280;9896;42.486;26.506;2023-03-04T11:01:03;99824.41;;;10.21;96.04
19510;BME280;9896;42.486;26.506;2023-03-04T11:03:32;99815.13;;;10.24;96.24
19510;BME280;9896;42.486;26.506;2023-03-04T11:06:16;99801.69;;;9.98;97.17
19510;BME280;9896;42.486;26.506;2023-03-04T11:08:44;99814.50;;;10.15;96.06
19510;BME280;9896;42.486;26.506;2023-03-04T11:11:36;99808.47;;;10.07;96.12
19510;BME280;9896;42.486;26.506;2023-03-04T11:14:21;99807.06;;;9.98;96.94
19510;BME280;9896;42.486;26.506;2023-03-04T11:17:02;99798.16;;;9.91;96.80
19510;BME280;9896;42.486;26.506;2023-03-04T11:19:34;99801.28;;;9.94;97.16
19510;BME280;9896;42.486;26.506;2023-03-04T11:22:02;99790.97;;;9.78;97.99
19510;BME280;9896;42.486;26.506;2023-03-04T11:24:28;99793.63;;;9.91;98.42
19510;BME280;9896;42.486;26.506;2023-03-04T11:27:00;99786.84;;;9.89;97.70
19510;BME280;9896;42.486;26.506;2023-03-04T11:29:45;99796.97;;;9.93;97.64
19510;BME280;9896;42.486;26.506;2023-03-04T11:32:17;99792.63;;;9.92;97.13
19510;BME280;9896;42.486;26.506;2023-03-04T11:35:01;99790.81;;;10.25;95.54
19510;BME280;9896;42.486;26.506;2023-03-04T11:37:40;99784.44;;;10.27;95.42
19510;BME280;9896;42.486;26.506;2023-03-04T11:40:12;99790.78;;;10.12;96.27
19510;BME280;9896;42.486;26.506;2023-03-04T11:43:00;99780.91;;;10.39;95.16
19510;BME280;9896;42.486;26.506;2023-03-04T11:49:06;99770.72;;;10.74;91.84
19510;BME280;9896;42.486;26.506;2023-03-04T11:51:56;99767.44;;;11.23;90.59
19510;BME280;9896;42.486;26.506;2023-03-04T12:00:31;99763.13;;;10.71;90.07
19510;BME280;9896;42.486;26.506;2023-03-04T12:13:45;99747.38;;;11.32;86.46
19510;BME280;9896;42.486;26.506;2023-03-04T12:19:32;99739.78;;;11.92;83.57
19510;BME280;9896;42.486;26.506;2023-03-04T12:27:23;99728.81;;;11.93;81.98
19510;BME280;9896;42.486;26.506;2023-03-04T12:30:02;99729.59;;;12.00;81.48
19510;BME280;9896;42.486;26.506;2023-03-04T12:32:36;99728.53;;;12.26;81.57
19510;BME280;9896;42.486;26.506;2023-03-04T12:40:39;99726.34;;;11.92;82.04
19510;BME280;9896;42.486;26.506;2023-03-04T12:49:02;99717.91;;;11.88;82.77
19510;BME280;9896;42.486;26.506;2023-03-04T12:54:25;99708.31;;;11.68;84.33
19510;BME280;9896;42.486;26.506;2023-03-04T12:59:25;99702.44;;;11.52;85.82
19510;BME280;9896;42.486;26.506;2023-03-04T13:09:46;99691.25;;;11.87;83.25
19510;BME280;9896;42.486;26.506;2023-03-04T13:12:21;99686.69;;;11.87;84.24
19510;BME280;9896;42.486;26.506;2023-03-04T13:17:47;99683.16;;;12.11;83.83
19510;BME280;9896;42.486;26.506;2023-03-04T13:20:34;99680.19;;;12.20;80.87
19510;BME280;9896;42.486;26.506;2023-03-04T13:23:02;99672.13;;;12.01;82.59
19510;BME280;9896;42.486;26.506;2023-03-04T13:28:32;99655.56;;;12.41;81.90
19510;BME280;9896;42.486;26.506;2023-03-04T13:31:13;99666.41;;;12.71;81.21
19510;BME280;9896;42.486;26.506;2023-03-04T13:33:52;99662.47;;;13.03;80.89
19510;BME280;9896;42.486;26.506;2023-03-04T13:36:32;99657.16;;;13.15;80.08
19510;BME280;9896;42.486;26.506;2023-03-04T13:38:59;99652.25;;;13.23;79.25
19510;BME280;9896;42.486;26.506;2023-03-04T13:41:29;99652.13;;;13.18;79.21
19510;BME280;9896;42.486;26.506;2023-03-04T13:44:00;99644.94;;;13.54;77.64
19510;BME280;9896;42.486;26.506;2023-03-04T13:51:46;99637.84;;;12.51;81.91
19510;BME280;9896;42.486;26.506;2023-03-04T13:56:38;99626.84;;;11.98;84.75
19510;BME280;9896;42.486;26.506;2023-03-04T14:04:28;99628.03;;;11.84;84.51
19510;BME280;9896;42.486;26.506;2023-03-04T14:06:56;99629.84;;;11.65;86.11
19510;BME280;9896;42.486;26.506;2023-03-04T14:10:04;99626.72;;;12.11;85.08
19510;BME280;9896;42.486;26.506;2023-03-04T14:12:35;99602.22;;;12.56;82.36
19510;BME280;9896;42.486;26.506;2023-03-04T14:17:40;99604.41;;;13.07;79.74
19510;BME280;9896;42.486;26.506;2023-03-04T14:20:28;99600.59;;;12.85;80.74
19510;BME280;9896;42.486;26.506;2023-03-04T14:22:55;99603.59;;;12.77;80.77
19510;BME280;9896;42.486;26.506;2023-03-04T14:25:23;99604.09;;;12.85;81.22
19510;BME280;9896;42.486;26.506;2023-03-04T14:27:49;99601.59;;;13.32;78.94
19510;BME280;9896;42.486;26.506;2023-03-04T14:30:27;99587.19;;;13.49;77.99
19510;BME280;9896;42.486;26.506;2023-03-04T14:32:54;99587.78;;;13.86;77.24
19510;BME280;9896;42.486;26.506;2023-03-04T14:35:30;99584.25;;;13.28;78.47
19510;BME280;9896;42.486;26.506;2023-03-04T14:40:51;99575.84;;;12.94;80.38
19510;BME280;9896;42.486;26.506;2023-03-04T14:43:21;99581.97;;;12.53;81.78